Terminal Aerodrome Forecast
Issued by NWS Grand Forks, ND

Home | Current Version | Previous Version | Text Only | Print | Product List | Glossary Off
Versions: 1 2 3 4 5 6 7 8 9 10 11 12 13 14 15 16 17 18 19 20 21 22

000
FTUS43 KFGF 281500 AAA
TAFGFK
TAF AMD
KGFK 281526Z 2815/2912 16010KT 2SM BR OVC004
     FM281800 VRB06KT P6SM OVC008
     FM290000 33018KT P6SM OVC010=

USA.gov is the U.S. government's official web portal to all federal, state and local government web resources and services.